sensor_id;sensor_type;location;lat;lon;timestamp;P1;durP1;ratioP1;P2;durP2;ratioP2
23768;SDS011;12064;50.890;5.424;2023-02-15T00:06:11;3.42;;;3.08;;
23768;SDS011;12064;50.890;5.424;2023-02-15T00:15:01;3.17;;;2.87;;
23768;SDS011;12064;50.890;5.424;2023-02-15T00:23:52;3.40;;;3.00;;
23768;SDS011;12064;50.890;5.424;2023-02-15T00:32:43;3.10;;;2.80;;
23768;SDS011;12064;50.890;5.424;2023-02-15T00:41:34;3.90;;;2.90;;
23768;SDS011;12064;50.890;5.424;2023-02-15T00:50:25;2.92;;;2.72;;
23768;SDS011;12064;50.890;5.424;2023-02-15T00:59:15;3.20;;;2.90;;
23768;SDS011;12064;50.890;5.424;2023-02-15T01:08:06;3.37;;;3.07;;
23768;SDS011;12064;50.890;5.424;2023-02-15T01:16:57;3.50;;;3.20;;
23768;SDS011;12064;50.890;5.424;2023-02-15T01:53:51;3.60;;;3.30;;
23768;SDS011;12064;50.890;5.424;2023-02-15T02:02:49;3.45;;;3.15;;
23768;SDS011;12064;50.890;5.424;2023-02-15T02:11:44;3.42;;;2.72;;
23768;SDS011;12064;50.890;5.424;2023-02-15T02:39:12;4.25;;;3.20;;
23768;SDS011;12064;50.890;5.424;2023-02-15T02:48:13;3.97;;;2.85;;
23768;SDS011;12064;50.890;5.424;2023-02-15T02:57:07;3.78;;;3.28;;
23768;SDS011;12064;50.890;5.424;2023-02-15T03:06:00;3.60;;;3.30;;
23768;SDS011;12064;50.890;5.424;2023-02-15T03:25:16;3.40;;;3.10;;
23768;SDS011;12064;50.890;5.424;2023-02-15T03:34:04;3.13;;;2.90;;
23768;SDS011;12064;50.890;5.424;2023-02-15T03:43:19;3.60;;;3.30;;
23768;SDS011;12064;50.890;5.424;2023-02-15T03:52:42;3.50;;;3.20;;
23768;SDS011;12064;50.890;5.424;2023-02-15T04:01:38;3.38;;;3.08;;
23768;SDS011;12064;50.890;5.424;2023-02-15T04:10:49;3.67;;;3.17;;
23768;SDS011;12064;50.890;5.424;2023-02-15T04:19:42;3.45;;;3.15;;
23768;SDS011;12064;50.890;5.424;2023-02-15T04:28:51;3.78;;;3.20;;
23768;SDS011;12064;50.890;5.424;2023-02-15T04:37:45;3.77;;;3.20;;
23768;SDS011;12064;50.890;5.424;2023-02-15T04:56:03;3.15;;;2.92;;
23768;SDS011;12064;50.890;5.424;2023-02-15T05:04:54;4.20;;;3.50;;
23768;SDS011;12064;50.890;5.424;2023-02-15T05:13:56;3.20;;;2.90;;
23768;SDS011;12064;50.890;5.424;2023-02-15T05:22:54;3.65;;;3.30;;
23768;SDS011;12064;50.890;5.424;2023-02-15T05:31:47;3.40;;;3.10;;
23768;SDS011;12064;50.890;5.424;2023-02-15T05:40:38;4.00;;;3.30;;
23768;SDS011;12064;50.890;5.424;2023-02-15T05:49:29;3.60;;;3.30;;
23768;SDS011;12064;50.890;5.424;2023-02-15T05:58:29;4.13;;;3.72;;
23768;SDS011;12064;50.890;5.424;2023-02-15T06:16:25;4.30;;;3.47;;
23768;SDS011;12064;50.890;5.424;2023-02-15T06:25:16;3.70;;;3.40;;
23768;SDS011;12064;50.890;5.424;2023-02-15T06:34:07;4.13;;;3.73;;
23768;SDS011;12064;50.890;5.424;2023-02-15T06:42:58;4.22;;;3.83;;
23768;SDS011;12064;50.890;5.424;2023-02-15T06:51:53;4.43;;;4.03;;
23768;SDS011;12064;50.890;5.424;2023-02-15T07:00:44;4.40;;;3.80;;
23768;SDS011;12064;50.890;5.424;2023-02-15T07:09:38;4.20;;;3.80;;
23768;SDS011;12064;50.890;5.424;2023-02-15T07:18:29;4.05;;;3.50;;
23768;SDS011;12064;50.890;5.424;2023-02-15T07:27:22;4.43;;;4.03;;
23768;SDS011;12064;50.890;5.424;2023-02-15T07:36:15;4.43;;;3.88;;
23768;SDS011;12064;50.890;5.424;2023-02-15T07:45:08;4.95;;;4.00;;
23768;SDS011;12064;50.890;5.424;2023-02-15T07:53:59;6.07;;;4.10;;
23768;SDS011;12064;50.890;5.424;2023-02-15T08:02:50;4.20;;;3.80;;
23768;SDS011;12064;50.890;5.424;2023-02-15T08:12:03;5.30;;;3.83;;
23768;SDS011;12064;50.890;5.424;2023-02-15T08:20:56;4.80;;;4.03;;
23768;SDS011;12064;50.890;5.424;2023-02-15T08:29:47;5.80;;;3.87;;
23768;SDS011;12064;50.890;5.424;2023-02-15T08:38:42;4.40;;;4.00;;
23768;SDS011;12064;50.890;5.424;2023-02-15T08:47:36;4.68;;;4.20;;
23768;SDS011;12064;50.890;5.424;2023-02-15T08:56:31;4.57;;;4.03;;
23768;SDS011;12064;50.890;5.424;2023-02-15T09:05:26;4.20;;;3.80;;
23768;SDS011;12064;50.890;5.424;2023-02-15T09:14:17;4.63;;;4.10;;
23768;SDS011;12064;50.890;5.424;2023-02-15T09:23:15;4.32;;;3.92;;
23768;SDS011;12064;50.890;5.424;2023-02-15T09:32:05;4.25;;;3.83;;
23768;SDS011;12064;50.890;5.424;2023-02-15T09:41:09;4.90;;;3.93;;
23768;SDS011;12064;50.890;5.424;2023-02-15T10:27:35;4.20;;;3.80;;
23768;SDS011;12064;50.890;5.424;2023-02-15T11:13:15;4.00;;;3.70;;
23768;SDS011;12064;50.890;5.424;2023-02-15T11:22:09;3.97;;;3.58;;
23768;SDS011;12064;50.890;5.424;2023-02-15T11:31:10;3.72;;;3.42;;
23768;SDS011;12064;50.890;5.424;2023-02-15T11:41:08;4.10;;;3.70;;
23768;SDS011;12064;50.890;5.424;2023-02-15T11:49:47;4.20;;;3.80;;
23768;SDS011;12064;50.890;5.424;2023-02-15T12:07:45;3.90;;;3.55;;
23768;SDS011;12064;50.890;5.424;2023-02-15T12:16:41;3.70;;;3.40;;
23768;SDS011;12064;50.890;5.424;2023-02-15T12:25:50;3.67;;;3.38;;
23768;SDS011;12064;50.890;5.424;2023-02-15T12:34:44;4.47;;;3.65;;
23768;SDS011;12064;50.890;5.424;2023-02-15T12:43:37;3.95;;;3.63;;
23768;SDS011;12064;50.890;5.424;2023-02-15T12:52:28;3.65;;;3.35;;
23768;SDS011;12064;50.890;5.424;2023-02-15T13:01:19;3.80;;;3.50;;
23768;SDS011;12064;50.890;5.424;2023-02-15T13:10:22;3.47;;;3.17;;
23768;SDS011;12064;50.890;5.424;2023-02-15T13:28:37;4.78;;;3.35;;
23768;SDS011;12064;50.890;5.424;2023-02-15T13:46:45;3.55;;;3.25;;
23768;SDS011;12064;50.890;5.424;2023-02-15T13:56:06;3.15;;;2.85;;
23768;SDS011;12064;50.890;5.424;2023-02-15T14:05:28;3.72;;;3.35;;
23768;SDS011;12064;50.890;5.424;2023-02-15T14:32:38;3.40;;;3.10;;
23768;SDS011;12064;50.890;5.424;2023-02-15T14:41:37;3.30;;;3.00;;
23768;SDS011;12064;50.890;5.424;2023-02-15T14:50:43;3.25;;;3.05;;
23768;SDS011;12064;50.890;5.424;2023-02-15T14:59:39;3.63;;;3.00;;
23768;SDS011;12064;50.890;5.424;2023-02-15T15:08:39;3.53;;;3.23;;
23768;SDS011;12064;50.890;5.424;2023-02-15T15:54:50;3.65;;;3.35;;
23768;SDS011;12064;50.890;5.424;2023-02-15T16:03:49;3.30;;;3.00;;
23768;SDS011;12064;50.890;5.424;2023-02-15T16:12:41;3.33;;;3.13;;
23768;SDS011;12064;50.890;5.424;2023-02-15T16:21:32;3.60;;;3.30;;
23768;SDS011;12064;50.890;5.424;2023-02-15T16:30:33;3.25;;;2.95;;
23768;SDS011;12064;50.890;5.424;2023-02-15T16:39:25;2.97;;;2.75;;
23768;SDS011;12064;50.890;5.424;2023-02-15T16:48:20;3.10;;;2.88;;
23768;SDS011;12064;50.890;5.424;2023-02-15T16:57:20;3.30;;;3.00;;
23768;SDS011;12064;50.890;5.424;2023-02-15T17:06:19;3.17;;;2.90;;
23768;SDS011;12064;50.890;5.424;2023-02-15T17:24:48;3.22;;;3.03;;
23768;SDS011;12064;50.890;5.424;2023-02-15T17:33:47;3.67;;;3.30;;
23768;SDS011;12064;50.890;5.424;2023-02-15T17:42:43;3.70;;;3.40;;
23768;SDS011;12064;50.890;5.424;2023-02-15T17:51:37;3.15;;;2.95;;
23768;SDS011;12064;50.890;5.424;2023-02-15T18:00:29;3.15;;;2.95;;
23768;SDS011;12064;50.890;5.424;2023-02-15T18:09:39;3.50;;;3.20;;
23768;SDS011;12064;50.890;5.424;2023-02-15T18:18:48;3.55;;;3.25;;
23768;SDS011;12064;50.890;5.424;2023-02-15T18:27:54;3.50;;;3.20;;
23768;SDS011;12064;50.890;5.424;2023-02-15T18:36:48;3.33;;;3.03;;
23768;SDS011;12064;50.890;5.424;2023-02-15T18:55:13;3.60;;;3.30;;
23768;SDS011;12064;50.890;5.424;2023-02-15T19:04:07;3.90;;;3.50;;
23768;SDS011;12064;50.890;5.424;2023-02-15T19:12:57;3.33;;;3.03;;
23768;SDS011;12064;50.890;5.424;2023-02-15T19:21:48;3.55;;;3.25;;
23768;SDS011;12064;50.890;5.424;2023-02-15T19:30:42;3.42;;;3.13;;
23768;SDS011;12064;50.890;5.424;2023-02-15T19:39:37;3.33;;;3.13;;
23768;SDS011;12064;50.890;5.424;2023-02-15T19:57:45;3.63;;;3.33;;
23768;SDS011;12064;50.890;5.424;2023-02-15T20:06:38;3.60;;;3.30;;
23768;SDS011;12064;50.890;5.424;2023-02-15T20:34:31;3.78;;;3.47;;
23768;SDS011;12064;50.890;5.424;2023-02-15T20:43:22;4.27;;;3.87;;
23768;SDS011;12064;50.890;5.424;2023-02-15T20:52:18;3.83;;;3.30;;
23768;SDS011;12064;50.890;5.424;2023-02-15T21:10:36;3.88;;;3.58;;
23768;SDS011;12064;50.890;5.424;2023-02-15T21:19:27;3.63;;;3.33;;
23768;SDS011;12064;50.890;5.424;2023-02-15T21:28:20;4.00;;;3.70;;
23768;SDS011;12064;50.890;5.424;2023-02-15T21:37:25;3.53;;;3.23;;
23768;SDS011;12064;50.890;5.424;2023-02-15T21:46:20;3.72;;;3.42;;
23768;SDS011;12064;50.890;5.424;2023-02-15T21:55:30;3.83;;;3.53;;
23768;SDS011;12064;50.890;5.424;2023-02-15T22:13:37;4.28;;;3.40;;
23768;SDS011;12064;50.890;5.424;2023-02-15T22:22:28;3.85;;;3.45;;
23768;SDS011;12064;50.890;5.424;2023-02-15T22:31:20;3.97;;;3.67;;
23768;SDS011;12064;50.890;5.424;2023-02-15T22:40:13;3.90;;;3.60;;
23768;SDS011;12064;50.890;5.424;2023-02-15T22:49:05;4.15;;;3.80;;
23768;SDS011;12064;50.890;5.424;2023-02-15T22:57:55;3.80;;;3.50;;
23768;SDS011;12064;50.890;5.424;2023-02-15T23:06:47;3.45;;;3.15;;
23768;SDS011;12064;50.890;5.424;2023-02-15T23:15:39;3.50;;;3.20;;
23768;SDS011;12064;50.890;5.424;2023-02-15T23:24:30;3.50;;;3.20;;
23768;SDS011;12064;50.890;5.424;2023-02-15T23:33:25;3.90;;;3.60;;
23768;SDS011;12064;50.890;5.424;2023-02-15T23:42:28;4.03;;;3.67;;
23768;SDS011;12064;50.890;5.424;2023-02-15T23:51:21;3.90;;;3.60;;
